Bemidji Regional Airport
KBJI : now visible

Airfield :











YOU CAN JOIN US ON...

 
LOGIN :

Register | Disclaimer

   EN    FR    IT 

 









Legend :    VFR   Marginal VFR   IFR   Intensive IFR   Very Intensive IFR
Visi :
Ceiling :
>= 8 km
>= 3000ft
5 to 8 km
1000 to 3000 ft
1500m to 5 km
500 to 1000 ft
800 to 1500m
200 to 500 ft
< 800m
< 200 ft
Symbols :   Thunderstorms  Fog  Heavy snow  Heavy precipitations  Wind > 20 kt






- Airport Elevation : 1391 ft


KBJI - Bemidji Regional

CURRENT METAR :
  • 061015Z AUTO 04005KT 10SM CLR 04/03 A3012 RMK AO2 T00410031

EXPIRED METARs :
  • 060956Z AUTO 00000KT 10SM CLR 04/04 A3012 RMK AO2 T00410036
  • 060955Z AUTO 00000KT 10SM CLR 04/04 A3012 RMK AO2 T00400035
  • 060935Z AUTO 00000KT 10SM CLR 05/04 A3012 RMK AO2 T00460039
  • 060915Z AUTO 00000KT 10SM CLR 04/04 A3012 RMK AO2 T00380035
  • 060855Z AUTO 00000KT 10SM CLR 05/04 A3012 RMK AO2 T00500042
  • 060836Z AUTO 04003KT 10SM CLR 05/04 A3012 RMK AO2 T00530043
  • 060815Z AUTO 00000KT 7SM CLR 06/05 A3011 RMK AO2 T00550046
  • 060755Z AUTO 00000KT 10SM CLR 06/05 A3011 RMK AO2 LTG DSNT S T00580048
  • 060736Z AUTO 00000KT 10SM CLR 08/06 A3012 RMK AO2 T00770062

TAF KBJI
Valid from the 06 at 06:00 until the 07 at 06:00 UTC


060520Z 0606/0706 VRB04KT P6SM SKC
FM061700 11007KT P6SM SCT200
FM070000 13009KT 6SM BR VCTS BKN100CB
KZMP FIR / North America



MET'MAP, your aeronautical weather chart ! - Copyright ORBIFLY December 2007 - Disclaimer

ORBIFLY MET'MAP TEAM :

Programming & Development : Alexandra Zaïnal
Concept & original design : Baudouin d'Aumeries
Assistance for programming : Marc-Olivier Méhu
Technical & hardware support : Manuel Goepfert

Contact : metmap@orbifly.com




SOURCES & CREDITS :

   NOAA       Earth
Advisory